sensor_id;sensor_type;location;lat;lon;timestamp;P1;durP1;ratioP1;P2;durP2;ratioP2
13999;SDS011;7075;53.574;10.054;2023-07-09T00:01:57;12.20;;;11.33;;
13999;SDS011;7075;53.574;10.054;2023-07-09T00:04:22;13.07;;;12.20;;
13999;SDS011;7075;53.574;10.054;2023-07-09T00:07:03;11.82;;;11.07;;
13999;SDS011;7075;53.574;10.054;2023-07-09T00:09:30;13.48;;;12.55;;
13999;SDS011;7075;53.574;10.054;2023-07-09T00:11:57;11.27;;;10.57;;
13999;SDS011;7075;53.574;10.054;2023-07-09T00:14:23;11.90;;;11.10;;
13999;SDS011;7075;53.574;10.054;2023-07-09T00:16:48;11.60;;;10.63;;
13999;SDS011;7075;53.574;10.054;2023-07-09T00:19:20;11.27;;;10.48;;
13999;SDS011;7075;53.574;10.054;2023-07-09T00:21:51;10.53;;;9.70;;
13999;SDS011;7075;53.574;10.054;2023-07-09T00:24:21;10.90;;;10.00;;
13999;SDS011;7075;53.574;10.054;2023-07-09T00:26:47;10.67;;;9.80;;
13999;SDS011;7075;53.574;10.054;2023-07-09T00:29:16;10.80;;;9.93;;
13999;SDS011;7075;53.574;10.054;2023-07-09T00:31:43;10.13;;;9.33;;
13999;SDS011;7075;53.574;10.054;2023-07-09T00:34:10;8.80;;;8.27;;
13999;SDS011;7075;53.574;10.054;2023-07-09T00:36:39;9.93;;;9.20;;
13999;SDS011;7075;53.574;10.054;2023-07-09T00:39:21;9.37;;;8.57;;
13999;SDS011;7075;53.574;10.054;2023-07-09T00:41:49;9.57;;;8.87;;
13999;SDS011;7075;53.574;10.054;2023-07-09T00:44:27;10.60;;;9.80;;
13999;SDS011;7075;53.574;10.054;2023-07-09T00:51:56;9.93;;;8.67;;
13999;SDS011;7075;53.574;10.054;2023-07-09T00:54:34;10.03;;;9.43;;
13999;SDS011;7075;53.574;10.054;2023-07-09T00:57:08;10.33;;;9.40;;
13999;SDS011;7075;53.574;10.054;2023-07-09T00:59:37;11.23;;;9.23;;
13999;SDS011;7075;53.574;10.054;2023-07-09T01:02:06;11.27;;;10.47;;
13999;SDS011;7075;53.574;10.054;2023-07-09T01:04:34;10.23;;;9.60;;
13999;SDS011;7075;53.574;10.054;2023-07-09T01:07:01;11.27;;;9.50;;
13999;SDS011;7075;53.574;10.054;2023-07-09T01:09:26;9.63;;;8.93;;
13999;SDS011;7075;53.574;10.054;2023-07-09T01:11:52;9.73;;;8.93;;
13999;SDS011;7075;53.574;10.054;2023-07-09T01:14:21;9.83;;;9.03;;
13999;SDS011;7075;53.574;10.054;2023-07-09T01:16:50;9.30;;;8.50;;
13999;SDS011;7075;53.574;10.054;2023-07-09T01:19:24;8.13;;;7.53;;
13999;SDS011;7075;53.574;10.054;2023-07-09T01:21:53;12.43;;;8.70;;
13999;SDS011;7075;53.574;10.054;2023-07-09T01:27:28;8.80;;;8.10;;
13999;SDS011;7075;53.574;10.054;2023-07-09T01:30:02;9.03;;;8.17;;
13999;SDS011;7075;53.574;10.054;2023-07-09T01:32:31;10.10;;;9.00;;
13999;SDS011;7075;53.574;10.054;2023-07-09T01:34:58;8.53;;;8.03;;
13999;SDS011;7075;53.574;10.054;2023-07-09T01:37:29;8.27;;;7.73;;
13999;SDS011;7075;53.574;10.054;2023-07-09T01:39:56;8.73;;;8.23;;
13999;SDS011;7075;53.574;10.054;2023-07-09T01:42:22;8.47;;;7.67;;
13999;SDS011;7075;53.574;10.054;2023-07-09T01:44:51;8.10;;;7.37;;
13999;SDS011;7075;53.574;10.054;2023-07-09T01:47:18;8.77;;;8.07;;
13999;SDS011;7075;53.574;10.054;2023-07-09T01:49:57;8.03;;;7.53;;
13999;SDS011;7075;53.574;10.054;2023-07-09T01:52:23;8.10;;;7.40;;
13999;SDS011;7075;53.574;10.054;2023-07-09T01:54:54;7.87;;;7.37;;
13999;SDS011;7075;53.574;10.054;2023-07-09T01:57:20;9.67;;;7.93;;
13999;SDS011;7075;53.574;10.054;2023-07-09T02:00:01;8.13;;;7.63;;
13999;SDS011;7075;53.574;10.054;2023-07-09T02:02:35;8.20;;;7.60;;
13999;SDS011;7075;53.574;10.054;2023-07-09T02:05:01;8.17;;;7.60;;
13999;SDS011;7075;53.574;10.054;2023-07-09T02:07:32;8.40;;;7.70;;
13999;SDS011;7075;53.574;10.054;2023-07-09T02:09:59;8.70;;;7.87;;
13999;SDS011;7075;53.574;10.054;2023-07-09T02:12:25;8.27;;;7.53;;
13999;SDS011;7075;53.574;10.054;2023-07-09T02:14:53;8.77;;;8.17;;
13999;SDS011;7075;53.574;10.054;2023-07-09T02:17:18;8.90;;;8.20;;
13999;SDS011;7075;53.574;10.054;2023-07-09T02:19:44;9.43;;;8.53;;
13999;SDS011;7075;53.574;10.054;2023-07-09T02:22:10;9.67;;;8.87;;
13999;SDS011;7075;53.574;10.054;2023-07-09T02:24:37;8.60;;;7.83;;
13999;SDS011;7075;53.574;10.054;2023-07-09T02:27:05;8.40;;;7.80;;
13999;SDS011;7075;53.574;10.054;2023-07-09T02:29:34;9.97;;;8.57;;
13999;SDS011;7075;53.574;10.054;2023-07-09T02:32:01;8.37;;;7.87;;
13999;SDS011;7075;53.574;10.054;2023-07-09T02:34:27;9.27;;;8.67;;
13999;SDS011;7075;53.574;10.054;2023-07-09T02:36:56;9.57;;;8.87;;
13999;SDS011;7075;53.574;10.054;2023-07-09T02:39:23;9.87;;;8.87;;
13999;SDS011;7075;53.574;10.054;2023-07-09T02:41:50;9.47;;;8.87;;
13999;SDS011;7075;53.574;10.054;2023-07-09T02:44:16;9.30;;;8.70;;
13999;SDS011;7075;53.574;10.054;2023-07-09T02:46:42;8.17;;;7.67;;
13999;SDS011;7075;53.574;10.054;2023-07-09T02:49:09;8.60;;;8.03;;
13999;SDS011;7075;53.574;10.054;2023-07-09T02:51:37;8.93;;;8.20;;
13999;SDS011;7075;53.574;10.054;2023-07-09T02:54:03;8.60;;;8.00;;
13999;SDS011;7075;53.574;10.054;2023-07-09T02:56:29;8.20;;;7.60;;
13999;SDS011;7075;53.574;10.054;2023-07-09T02:58:56;8.17;;;7.63;;
13999;SDS011;7075;53.574;10.054;2023-07-09T03:01:22;9.53;;;8.70;;
13999;SDS011;7075;53.574;10.054;2023-07-09T03:03:50;9.07;;;8.27;;
13999;SDS011;7075;53.574;10.054;2023-07-09T03:06:18;9.20;;;8.53;;
13999;SDS011;7075;53.574;10.054;2023-07-09T03:08:45;9.70;;;9.07;;
13999;SDS011;7075;53.574;10.054;2023-07-09T03:11:11;8.33;;;7.83;;
13999;SDS011;7075;53.574;10.054;2023-07-09T03:13:37;9.17;;;8.20;;
13999;SDS011;7075;53.574;10.054;2023-07-09T03:16:04;8.83;;;8.03;;
13999;SDS011;7075;53.574;10.054;2023-07-09T03:18:30;8.87;;;8.17;;
13999;SDS011;7075;53.574;10.054;2023-07-09T03:20:56;7.77;;;7.17;;
13999;SDS011;7075;53.574;10.054;2023-07-09T03:23:23;7.83;;;7.33;;
13999;SDS011;7075;53.574;10.054;2023-07-09T03:25:48;8.93;;;8.27;;
13999;SDS011;7075;53.574;10.054;2023-07-09T03:28:14;7.67;;;7.07;;
13999;SDS011;7075;53.574;10.054;2023-07-09T03:30:41;7.57;;;6.97;;
13999;SDS011;7075;53.574;10.054;2023-07-09T03:33:08;7.10;;;6.60;;
13999;SDS011;7075;53.574;10.054;2023-07-09T03:35:34;7.77;;;7.00;;
13999;SDS011;7075;53.574;10.054;2023-07-09T03:38:01;7.90;;;7.30;;
13999;SDS011;7075;53.574;10.054;2023-07-09T03:40:27;7.33;;;6.83;;
13999;SDS011;7075;53.574;10.054;2023-07-09T03:42:53;7.33;;;6.83;;
13999;SDS011;7075;53.574;10.054;2023-07-09T03:45:18;12.33;;;7.33;;
13999;SDS011;7075;53.574;10.054;2023-07-09T03:47:44;7.67;;;7.03;;
13999;SDS011;7075;53.574;10.054;2023-07-09T03:50:09;7.90;;;7.37;;
13999;SDS011;7075;53.574;10.054;2023-07-09T03:52:36;8.43;;;7.83;;
13999;SDS011;7075;53.574;10.054;2023-07-09T03:55:02;8.00;;;7.50;;
13999;SDS011;7075;53.574;10.054;2023-07-09T03:57:29;8.13;;;7.57;;
13999;SDS011;7075;53.574;10.054;2023-07-09T03:59:55;8.60;;;7.87;;
13999;SDS011;7075;53.574;10.054;2023-07-09T04:02:23;8.17;;;7.47;;
13999;SDS011;7075;53.574;10.054;2023-07-09T04:04:49;8.50;;;7.90;;
13999;SDS011;7075;53.574;10.054;2023-07-09T04:07:15;8.30;;;7.80;;
13999;SDS011;7075;53.574;10.054;2023-07-09T04:09:41;8.37;;;7.57;;
13999;SDS011;7075;53.574;10.054;2023-07-09T04:12:07;8.80;;;8.23;;
13999;SDS011;7075;53.574;10.054;2023-07-09T04:14:33;7.53;;;6.63;;
13999;SDS011;7075;53.574;10.054;2023-07-09T04:16:59;7.73;;;7.23;;
13999;SDS011;7075;53.574;10.054;2023-07-09T04:19:25;7.33;;;6.63;;
13999;SDS011;7075;53.574;10.054;2023-07-09T04:21:50;8.10;;;7.10;;
13999;SDS011;7075;53.574;10.054;2023-07-09T04:24:17;7.00;;;6.60;;
13999;SDS011;7075;53.574;10.054;2023-07-09T04:26:43;6.80;;;6.40;;
13999;SDS011;7075;53.574;10.054;2023-07-09T04:29:11;7.63;;;6.93;;
13999;SDS011;7075;53.574;10.054;2023-07-09T04:31:36;7.60;;;7.07;;
13999;SDS011;7075;53.574;10.054;2023-07-09T04:34:02;7.37;;;6.87;;
13999;SDS011;7075;53.574;10.054;2023-07-09T04:36:29;7.53;;;6.93;;
13999;SDS011;7075;53.574;10.054;2023-07-09T04:38:54;7.13;;;6.73;;
13999;SDS011;7075;53.574;10.054;2023-07-09T04:41:22;7.77;;;7.10;;
13999;SDS011;7075;53.574;10.054;2023-07-09T04:43:49;11.83;;;7.37;;
13999;SDS011;7075;53.574;10.054;2023-07-09T04:46:15;7.60;;;7.10;;
13999;SDS011;7075;53.574;10.054;2023-07-09T04:48:40;7.23;;;6.73;;
13999;SDS011;7075;53.574;10.054;2023-07-09T04:51:06;8.67;;;7.87;;
13999;SDS011;7075;53.574;10.054;2023-07-09T04:53:31;7.77;;;7.17;;
13999;SDS011;7075;53.574;10.054;2023-07-09T04:55:57;7.57;;;7.03;;
13999;SDS011;7075;53.574;10.054;2023-07-09T04:58:23;6.67;;;6.27;;
13999;SDS011;7075;53.574;10.054;2023-07-09T05:00:48;7.33;;;6.83;;
13999;SDS011;7075;53.574;10.054;2023-07-09T05:03:16;6.87;;;6.47;;
13999;SDS011;7075;53.574;10.054;2023-07-09T05:05:44;8.03;;;7.47;;
13999;SDS011;7075;53.574;10.054;2023-07-09T05:08:11;7.30;;;6.80;;
13999;SDS011;7075;53.574;10.054;2023-07-09T05:10:41;6.53;;;6.13;;
13999;SDS011;7075;53.574;10.054;2023-07-09T05:13:11;7.57;;;7.07;;
13999;SDS011;7075;53.574;10.054;2023-07-09T05:15:41;7.40;;;6.73;;
13999;SDS011;7075;53.574;10.054;2023-07-09T05:18:12;8.23;;;6.90;;
13999;SDS011;7075;53.574;10.054;2023-07-09T05:20:39;7.83;;;7.20;;
13999;SDS011;7075;53.574;10.054;2023-07-09T05:23:06;8.50;;;7.80;;
13999;SDS011;7075;53.574;10.054;2023-07-09T05:25:33;8.53;;;7.77;;
13999;SDS011;7075;53.574;10.054;2023-07-09T05:27:58;8.63;;;8.03;;
13999;SDS011;7075;53.574;10.054;2023-07-09T05:30:24;8.57;;;7.67;;
13999;SDS011;7075;53.574;10.054;2023-07-09T05:32:50;9.17;;;8.63;;
13999;SDS011;7075;53.574;10.054;2023-07-09T05:35:18;9.13;;;8.63;;
13999;SDS011;7075;53.574;10.054;2023-07-09T05:37:44;8.47;;;7.77;;
13999;SDS011;7075;53.574;10.054;2023-07-09T05:40:10;8.07;;;7.37;;
13999;SDS011;7075;53.574;10.054;2023-07-09T05:42:37;8.77;;;8.03;;
13999;SDS011;7075;53.574;10.054;2023-07-09T05:45:03;10.40;;;8.33;;
13999;SDS011;7075;53.574;10.054;2023-07-09T05:47:29;13.77;;;8.53;;
13999;SDS011;7075;53.574;10.054;2023-07-09T05:49:55;7.77;;;7.20;;
13999;SDS011;7075;53.574;10.054;2023-07-09T05:52:21;8.60;;;7.80;;
13999;SDS011;7075;53.574;10.054;2023-07-09T05:54:49;6.83;;;6.33;;
13999;SDS011;7075;53.574;10.054;2023-07-09T05:57:15;6.57;;;6.00;;
13999;SDS011;7075;53.574;10.054;2023-07-09T05:59:41;8.97;;;8.20;;
13999;SDS011;7075;53.574;10.054;2023-07-09T06:02:10;9.10;;;8.20;;
13999;SDS011;7075;53.574;10.054;2023-07-09T06:04:37;7.87;;;7.33;;
13999;SDS011;7075;53.574;10.054;2023-07-09T06:07:02;7.53;;;7.03;;
13999;SDS011;7075;53.574;10.054;2023-07-09T06:09:29;8.10;;;7.43;;
13999;SDS011;7075;53.574;10.054;2023-07-09T06:11:55;7.63;;;7.10;;
13999;SDS011;7075;53.574;10.054;2023-07-09T06:14:24;7.20;;;6.70;;
13999;SDS011;7075;53.574;10.054;2023-07-09T06:16:50;7.37;;;6.97;;
13999;SDS011;7075;53.574;10.054;2023-07-09T06:19:16;6.87;;;6.27;;
13999;SDS011;7075;53.574;10.054;2023-07-09T06:21:41;7.63;;;6.93;;
13999;SDS011;7075;53.574;10.054;2023-07-09T06:24:07;7.77;;;7.17;;
13999;SDS011;7075;53.574;10.054;2023-07-09T06:26:33;9.37;;;7.03;;
13999;SDS011;7075;53.574;10.054;2023-07-09T06:28:59;7.33;;;6.80;;
13999;SDS011;7075;53.574;10.054;2023-07-09T06:31:25;7.80;;;7.17;;
13999;SDS011;7075;53.574;10.054;2023-07-09T06:33:51;7.27;;;6.67;;
13999;SDS011;7075;53.574;10.054;2023-07-09T06:36:17;7.40;;;6.70;;
13999;SDS011;7075;53.574;10.054;2023-07-09T06:38:43;7.40;;;6.87;;
13999;SDS011;7075;53.574;10.054;2023-07-09T06:41:10;7.93;;;7.33;;
13999;SDS011;7075;53.574;10.054;2023-07-09T06:43:36;7.83;;;7.33;;
13999;SDS011;7075;53.574;10.054;2023-07-09T06:46:04;10.27;;;9.47;;
13999;SDS011;7075;53.574;10.054;2023-07-09T06:48:32;8.80;;;8.20;;
13999;SDS011;7075;53.574;10.054;2023-07-09T06:50:58;9.40;;;8.80;;
13999;SDS011;7075;53.574;10.054;2023-07-09T06:53:25;8.40;;;7.13;;
13999;SDS011;7075;53.574;10.054;2023-07-09T06:55:51;8.63;;;7.93;;
13999;SDS011;7075;53.574;10.054;2023-07-09T06:58:21;8.67;;;8.07;;
13999;SDS011;7075;53.574;10.054;2023-07-09T07:00:48;8.13;;;7.63;;
13999;SDS011;7075;53.574;10.054;2023-07-09T07:03:14;7.67;;;7.23;;
13999;SDS011;7075;53.574;10.054;2023-07-09T07:05:47;10.20;;;9.50;;
13999;SDS011;7075;53.574;10.054;2023-07-09T07:08:18;9.60;;;9.00;;
13999;SDS011;7075;53.574;10.054;2023-07-09T07:10:45;8.57;;;8.00;;
13999;SDS011;7075;53.574;10.054;2023-07-09T07:13:13;11.57;;;10.70;;
13999;SDS011;7075;53.574;10.054;2023-07-09T07:15:39;10.37;;;9.60;;
13999;SDS011;7075;53.574;10.054;2023-07-09T07:18:05;10.13;;;9.53;;
13999;SDS011;7075;53.574;10.054;2023-07-09T07:20:32;9.30;;;8.70;;
13999;SDS011;7075;53.574;10.054;2023-07-09T07:22:57;8.77;;;8.17;;
13999;SDS011;7075;53.574;10.054;2023-07-09T07:25:24;10.70;;;10.10;;
13999;SDS011;7075;53.574;10.054;2023-07-09T07:27:50;10.57;;;9.97;;
13999;SDS011;7075;53.574;10.054;2023-07-09T07:30:16;14.33;;;13.43;;
13999;SDS011;7075;53.574;10.054;2023-07-09T07:32:44;13.93;;;13.03;;
13999;SDS011;7075;53.574;10.054;2023-07-09T07:35:10;13.00;;;12.13;;
13999;SDS011;7075;53.574;10.054;2023-07-09T07:37:36;10.77;;;10.03;;
13999;SDS011;7075;53.574;10.054;2023-07-09T07:40:03;9.13;;;8.37;;
13999;SDS011;7075;53.574;10.054;2023-07-09T07:42:29;7.57;;;7.00;;
13999;SDS011;7075;53.574;10.054;2023-07-09T07:44:55;8.03;;;7.43;;
13999;SDS011;7075;53.574;10.054;2023-07-09T07:47:20;11.43;;;10.73;;
13999;SDS011;7075;53.574;10.054;2023-07-09T07:49:46;11.03;;;10.20;;
13999;SDS011;7075;53.574;10.054;2023-07-09T07:52:12;12.37;;;11.43;;
13999;SDS011;7075;53.574;10.054;2023-07-09T07:54:38;13.30;;;12.40;;
13999;SDS011;7075;53.574;10.054;2023-07-09T07:57:04;11.77;;;11.07;;
13999;SDS011;7075;53.574;10.054;2023-07-09T07:59:29;12.03;;;11.17;;
13999;SDS011;7075;53.574;10.054;2023-07-09T08:01:57;14.40;;;13.50;;
13999;SDS011;7075;53.574;10.054;2023-07-09T08:04:23;17.73;;;16.73;;
13999;SDS011;7075;53.574;10.054;2023-07-09T08:06:49;18.93;;;17.83;;
13999;SDS011;7075;53.574;10.054;2023-07-09T08:09:15;15.97;;;15.07;;
13999;SDS011;7075;53.574;10.054;2023-07-09T08:11:41;14.38;;;13.57;;
13999;SDS011;7075;53.574;10.054;2023-07-09T08:14:07;22.40;;;21.00;;
13999;SDS011;7075;53.574;10.054;2023-07-09T08:16:32;19.23;;;18.20;;
13999;SDS011;7075;53.574;10.054;2023-07-09T08:18:58;17.90;;;16.80;;
13999;SDS011;7075;53.574;10.054;2023-07-09T08:21:23;18.38;;;17.27;;
13999;SDS011;7075;53.574;10.054;2023-07-09T08:23:49;20.00;;;18.80;;
13999;SDS011;7075;53.574;10.054;2023-07-09T08:26:14;19.90;;;18.90;;
13999;SDS011;7075;53.574;10.054;2023-07-09T08:28:40;21.47;;;20.30;;
13999;SDS011;7075;53.574;10.054;2023-07-09T08:31:05;19.73;;;18.65;;
13999;SDS011;7075;53.574;10.054;2023-07-09T08:33:31;21.17;;;20.05;;
13999;SDS011;7075;53.574;10.054;2023-07-09T08:35:57;22.63;;;21.23;;
13999;SDS011;7075;53.574;10.054;2023-07-09T08:38:23;21.70;;;20.40;;
13999;SDS011;7075;53.574;10.054;2023-07-09T08:40:50;22.85;;;21.55;;
13999;SDS011;7075;53.574;10.054;2023-07-09T08:49:16;18.52;;;17.45;;
13999;SDS011;7075;53.574;10.054;2023-07-09T08:51:46;24.13;;;22.73;;
13999;SDS011;7075;53.574;10.054;2023-07-09T08:54:15;22.77;;;21.48;;
13999;SDS011;7075;53.574;10.054;2023-07-09T08:56:50;22.92;;;21.75;;
13999;SDS011;7075;53.574;10.054;2023-07-09T08:59:16;23.05;;;21.63;;
13999;SDS011;7075;53.574;10.054;2023-07-09T09:01:50;26.70;;;25.30;;
13999;SDS011;7075;53.574;10.054;2023-07-09T09:04:24;25.13;;;23.85;;
13999;SDS011;7075;53.574;10.054;2023-07-09T09:07:05;21.10;;;19.90;;
13999;SDS011;7075;53.574;10.054;2023-07-09T09:09:58;18.70;;;17.60;;
13999;SDS011;7075;53.574;10.054;2023-07-09T09:12:29;18.55;;;17.33;;
13999;SDS011;7075;53.574;10.054;2023-07-09T09:15:16;21.33;;;20.02;;
13999;SDS011;7075;53.574;10.054;2023-07-09T09:17:44;30.38;;;28.83;;
13999;SDS011;7075;53.574;10.054;2023-07-09T09:20:16;25.88;;;24.52;;
13999;SDS011;7075;53.574;10.054;2023-07-09T09:25:33;24.02;;;22.60;;
13999;SDS011;7075;53.574;10.054;2023-07-09T09:28:04;21.35;;;20.15;;
13999;SDS011;7075;53.574;10.054;2023-07-09T09:30:31;19.88;;;18.52;;
13999;SDS011;7075;53.574;10.054;2023-07-09T09:33:00;20.42;;;19.27;;
13999;SDS011;7075;53.574;10.054;2023-07-09T09:35:39;23.20;;;21.75;;
13999;SDS011;7075;53.574;10.054;2023-07-09T09:38:11;22.15;;;20.95;;
13999;SDS011;7075;53.574;10.054;2023-07-09T09:40:41;27.30;;;25.80;;
13999;SDS011;7075;53.574;10.054;2023-07-09T09:43:13;27.63;;;26.10;;
13999;SDS011;7075;53.574;10.054;2023-07-09T09:45:42;25.98;;;24.45;;
13999;SDS011;7075;53.574;10.054;2023-07-09T09:48:25;23.05;;;21.80;;
13999;SDS011;7075;53.574;10.054;2023-07-09T09:50:55;32.45;;;30.75;;
13999;SDS011;7075;53.574;10.054;2023-07-09T09:53:27;35.05;;;33.05;;
13999;SDS011;7075;53.574;10.054;2023-07-09T09:55:56;38.90;;;36.92;;
13999;SDS011;7075;53.574;10.054;2023-07-09T09:58:29;34.55;;;32.80;;
13999;SDS011;7075;53.574;10.054;2023-07-09T10:00:57;37.25;;;35.13;;
13999;SDS011;7075;53.574;10.054;2023-07-09T10:03:33;35.38;;;33.53;;
13999;SDS011;7075;53.574;10.054;2023-07-09T10:06:23;33.55;;;31.75;;
13999;SDS011;7075;53.574;10.054;2023-07-09T10:14:36;43.25;;;40.92;;
13999;SDS011;7075;53.574;10.054;2023-07-09T10:22:24;48.53;;;45.97;;
13999;SDS011;7075;53.574;10.054;2023-07-09T10:25:04;45.80;;;43.45;;
13999;SDS011;7075;53.574;10.054;2023-07-09T10:33:17;45.58;;;43.20;;
13999;SDS011;7075;53.574;10.054;2023-07-09T10:36:12;45.50;;;43.05;;
13999;SDS011;7075;53.574;10.054;2023-07-09T10:39:16;47.65;;;45.20;;
13999;SDS011;7075;53.574;10.054;2023-07-09T10:41:47;48.70;;;46.10;;
13999;SDS011;7075;53.574;10.054;2023-07-09T10:44:21;49.55;;;46.90;;
13999;SDS011;7075;53.574;10.054;2023-07-09T10:46:53;49.15;;;46.53;;
13999;SDS011;7075;53.574;10.054;2023-07-09T10:49:24;55.15;;;52.30;;
13999;SDS011;7075;53.574;10.054;2023-07-09T10:52:43;50.88;;;48.22;;
13999;SDS011;7075;53.574;10.054;2023-07-09T10:58:05;28.65;;;27.08;;
13999;SDS011;7075;53.574;10.054;2023-07-09T11:00:57;25.83;;;24.42;;
13999;SDS011;7075;53.574;10.054;2023-07-09T11:06:20;32.05;;;30.35;;
13999;SDS011;7075;53.574;10.054;2023-07-09T11:08:56;33.47;;;31.58;;
13999;SDS011;7075;53.574;10.054;2023-07-09T11:11:25;29.17;;;27.48;;
13999;SDS011;7075;53.574;10.054;2023-07-09T11:14:14;30.23;;;28.63;;
13999;SDS011;7075;53.574;10.054;2023-07-09T11:16:52;24.60;;;23.20;;
13999;SDS011;7075;53.574;10.054;2023-07-09T11:19:21;37.33;;;35.35;;
13999;SDS011;7075;53.574;10.054;2023-07-09T11:24:51;92.20;;;86.95;;
13999;SDS011;7075;53.574;10.054;2023-07-09T11:27:30;88.20;;;83.72;;
13999;SDS011;7075;53.574;10.054;2023-07-09T11:30:16;98.78;;;93.78;;
13999;SDS011;7075;53.574;10.054;2023-07-09T11:32:47;107.72;;;102.10;;
13999;SDS011;7075;53.574;10.054;2023-07-09T11:35:20;101.72;;;96.47;;
13999;SDS011;7075;53.574;10.054;2023-07-09T11:37:48;87.00;;;82.60;;
13999;SDS011;7075;53.574;10.054;2023-07-09T11:40:14;95.25;;;90.28;;
13999;SDS011;7075;53.574;10.054;2023-07-09T11:42:48;102.57;;;97.38;;
13999;SDS011;7075;53.574;10.054;2023-07-09T11:45:35;106.53;;;101.07;;
13999;SDS011;7075;53.574;10.054;2023-07-09T11:48:05;108.82;;;102.93;;
13999;SDS011;7075;53.574;10.054;2023-07-09T11:50:46;80.25;;;75.85;;
13999;SDS011;7075;53.574;10.054;2023-07-09T11:53:19;41.42;;;39.05;;
13999;SDS011;7075;53.574;10.054;2023-07-09T11:55:55;17.00;;;15.52;;
13999;SDS011;7075;53.574;10.054;2023-07-09T11:58:20;8.13;;;7.53;;
13999;SDS011;7075;53.574;10.054;2023-07-09T12:00:50;7.88;;;6.38;;
13999;SDS011;7075;53.574;10.054;2023-07-09T12:03:23;10.63;;;7.97;;
13999;SDS011;7075;53.574;10.054;2023-07-09T12:05:53;7.53;;;6.82;;
13999;SDS011;7075;53.574;10.054;2023-07-09T12:08:22;8.55;;;7.72;;
13999;SDS011;7075;53.574;10.054;2023-07-09T12:10:53;9.65;;;8.90;;
13999;SDS011;7075;53.574;10.054;2023-07-09T12:13:21;12.38;;;11.57;;
13999;SDS011;7075;53.574;10.054;2023-07-09T12:15:47;15.40;;;14.43;;
13999;SDS011;7075;53.574;10.054;2023-07-09T12:18:14;22.77;;;20.52;;
13999;SDS011;7075;53.574;10.054;2023-07-09T12:20:47;26.65;;;25.17;;
13999;SDS011;7075;53.574;10.054;2023-07-09T12:23:31;26.98;;;25.35;;
13999;SDS011;7075;53.574;10.054;2023-07-09T12:26:02;24.88;;;23.38;;
13999;SDS011;7075;53.574;10.054;2023-07-09T12:28:29;23.25;;;21.88;;
13999;SDS011;7075;53.574;10.054;2023-07-09T12:30:55;25.88;;;24.17;;
13999;SDS011;7075;53.574;10.054;2023-07-09T12:33:25;27.92;;;26.33;;
13999;SDS011;7075;53.574;10.054;2023-07-09T12:35:57;30.48;;;28.77;;
13999;SDS011;7075;53.574;10.054;2023-07-09T12:38:26;26.25;;;24.73;;
13999;SDS011;7075;53.574;10.054;2023-07-09T12:40:55;31.23;;;29.08;;
13999;SDS011;7075;53.574;10.054;2023-07-09T12:43:31;25.17;;;23.63;;
13999;SDS011;7075;53.574;10.054;2023-07-09T12:46:07;28.38;;;26.67;;
13999;SDS011;7075;53.574;10.054;2023-07-09T12:48:33;28.48;;;26.92;;
13999;SDS011;7075;53.574;10.054;2023-07-09T12:50:59;25.92;;;24.50;;
13999;SDS011;7075;53.574;10.054;2023-07-09T12:53:26;29.65;;;28.02;;
13999;SDS011;7075;53.574;10.054;2023-07-09T12:55:58;33.90;;;31.95;;
13999;SDS011;7075;53.574;10.054;2023-07-09T12:58:27;31.17;;;29.52;;
13999;SDS011;7075;53.574;10.054;2023-07-09T13:00:56;21.05;;;19.45;;
13999;SDS011;7075;53.574;10.054;2023-07-09T13:03:28;21.60;;;20.17;;
13999;SDS011;7075;53.574;10.054;2023-07-09T13:05:56;27.33;;;25.67;;
13999;SDS011;7075;53.574;10.054;2023-07-09T13:08:24;29.08;;;27.45;;
13999;SDS011;7075;53.574;10.054;2023-07-09T13:10:51;33.20;;;31.48;;
13999;SDS011;7075;53.574;10.054;2023-07-09T13:13:19;29.63;;;27.98;;
13999;SDS011;7075;53.574;10.054;2023-07-09T13:15:54;29.75;;;28.13;;
13999;SDS011;7075;53.574;10.054;2023-07-09T13:18:25;23.27;;;21.88;;
13999;SDS011;7075;53.574;10.054;2023-07-09T13:20:51;21.88;;;20.38;;
13999;SDS011;7075;53.574;10.054;2023-07-09T13:23:28;28.38;;;26.70;;
13999;SDS011;7075;53.574;10.054;2023-07-09T13:25:57;27.02;;;25.42;;
13999;SDS011;7075;53.574;10.054;2023-07-09T13:30:57;25.02;;;23.42;;
13999;SDS011;7075;53.574;10.054;2023-07-09T13:33:52;30.80;;;28.60;;
13999;SDS011;7075;53.574;10.054;2023-07-09T13:36:25;26.83;;;25.30;;
13999;SDS011;7075;53.574;10.054;2023-07-09T13:38:51;26.50;;;24.80;;
13999;SDS011;7075;53.574;10.054;2023-07-09T13:41:18;27.23;;;25.73;;
13999;SDS011;7075;53.574;10.054;2023-07-09T13:43:47;23.48;;;22.20;;
13999;SDS011;7075;53.574;10.054;2023-07-09T13:46:15;21.92;;;20.73;;
13999;SDS011;7075;53.574;10.054;2023-07-09T13:48:42;22.42;;;21.02;;
13999;SDS011;7075;53.574;10.054;2023-07-09T13:51:20;24.63;;;23.23;;
13999;SDS011;7075;53.574;10.054;2023-07-09T13:53:51;30.55;;;28.65;;
13999;SDS011;7075;53.574;10.054;2023-07-09T13:56:19;26.73;;;24.88;;
13999;SDS011;7075;53.574;10.054;2023-07-09T13:58:45;21.75;;;20.35;;
13999;SDS011;7075;53.574;10.054;2023-07-09T14:01:12;20.42;;;19.23;;
13999;SDS011;7075;53.574;10.054;2023-07-09T14:03:42;21.08;;;19.88;;
13999;SDS011;7075;53.574;10.054;2023-07-09T14:06:09;21.90;;;20.58;;
13999;SDS011;7075;53.574;10.054;2023-07-09T14:08:38;22.60;;;21.30;;
13999;SDS011;7075;53.574;10.054;2023-07-09T14:11:15;24.88;;;23.38;;
13999;SDS011;7075;53.574;10.054;2023-07-09T14:13:42;26.20;;;24.60;;
13999;SDS011;7075;53.574;10.054;2023-07-09T14:16:09;26.33;;;24.83;;
13999;SDS011;7075;53.574;10.054;2023-07-09T14:18:36;23.85;;;22.35;;
13999;SDS011;7075;53.574;10.054;2023-07-09T14:21:06;24.02;;;22.52;;
13999;SDS011;7075;53.574;10.054;2023-07-09T14:23:37;26.05;;;24.48;;
13999;SDS011;7075;53.574;10.054;2023-07-09T14:26:04;31.80;;;30.00;;
13999;SDS011;7075;53.574;10.054;2023-07-09T14:28:30;25.08;;;23.63;;
13999;SDS011;7075;53.574;10.054;2023-07-09T14:30:56;24.35;;;22.95;;
13999;SDS011;7075;53.574;10.054;2023-07-09T14:33:23;25.38;;;23.98;;
13999;SDS011;7075;53.574;10.054;2023-07-09T14:35:49;25.05;;;23.40;;
13999;SDS011;7075;53.574;10.054;2023-07-09T14:38:20;26.58;;;25.00;;
13999;SDS011;7075;53.574;10.054;2023-07-09T14:40:49;24.83;;;23.23;;
13999;SDS011;7075;53.574;10.054;2023-07-09T14:43:18;22.17;;;20.50;;
13999;SDS011;7075;53.574;10.054;2023-07-09T14:45:44;20.35;;;19.15;;
13999;SDS011;7075;53.574;10.054;2023-07-09T14:48:14;20.38;;;19.23;;
13999;SDS011;7075;53.574;10.054;2023-07-09T14:50:43;21.08;;;19.80;;
13999;SDS011;7075;53.574;10.054;2023-07-09T14:53:17;22.92;;;21.33;;
13999;SDS011;7075;53.574;10.054;2023-07-09T14:55:48;19.88;;;18.73;;
13999;SDS011;7075;53.574;10.054;2023-07-09T14:58:17;19.92;;;18.63;;
13999;SDS011;7075;53.574;10.054;2023-07-09T15:00:45;20.58;;;19.48;;
13999;SDS011;7075;53.574;10.054;2023-07-09T15:03:24;21.77;;;20.50;;
13999;SDS011;7075;53.574;10.054;2023-07-09T15:05:52;27.58;;;25.88;;
13999;SDS011;7075;53.574;10.054;2023-07-09T15:08:20;30.08;;;28.38;;
13999;SDS011;7075;53.574;10.054;2023-07-09T15:10:51;26.33;;;24.67;;
13999;SDS011;7075;53.574;10.054;2023-07-09T15:13:19;24.10;;;22.60;;
13999;SDS011;7075;53.574;10.054;2023-07-09T15:15:56;24.48;;;23.08;;
13999;SDS011;7075;53.574;10.054;2023-07-09T15:18:22;26.90;;;25.38;;
13999;SDS011;7075;53.574;10.054;2023-07-09T15:20:53;25.67;;;24.25;;
13999;SDS011;7075;53.574;10.054;2023-07-09T15:23:25;28.27;;;26.65;;
13999;SDS011;7075;53.574;10.054;2023-07-09T15:25:52;29.15;;;27.55;;
13999;SDS011;7075;53.574;10.054;2023-07-09T15:28:18;21.55;;;20.02;;
13999;SDS011;7075;53.574;10.054;2023-07-09T15:30:44;23.85;;;22.40;;